createdAt,value
2018-05-16T00:01:10.149Z,11.36
2018-05-16T00:03:38.509Z,11.34
2018-05-16T00:06:07.636Z,11.29
2018-05-16T00:08:36.161Z,11.27
2018-05-16T00:11:05.489Z,11.26
2018-05-16T00:13:34.699Z,11.27
2018-05-16T00:16:03.057Z,11.41
2018-05-16T00:18:32.151Z,11.41
2018-05-16T00:21:01.392Z,11.32
2018-05-16T00:23:29.833Z,11.36
2018-05-16T00:25:59.307Z,11.32
2018-05-16T00:28:28.064Z,11.33
2018-05-16T00:30:56.461Z,11.26
2018-05-16T00:33:25.693Z,11.31
2018-05-16T00:35:54.830Z,11.28
2018-05-16T00:38:23.167Z,11.28
2018-05-16T00:40:53.045Z,11.24
2018-05-16T00:43:21.395Z,11.21
2018-05-16T00:45:49.808Z,11.19
2018-05-16T00:48:18.151Z,11.19
2018-05-16T00:51:04.240Z,11.20
2018-05-16T00:53:32.579Z,11.19
2018-05-16T00:56:00.989Z,11.20
2018-05-16T00:58:29.352Z,11.23
2018-05-16T01:00:58.455Z,11.20
2018-05-16T01:03:26.833Z,11.16
2018-05-16T01:05:55.171Z,11.19
2018-05-16T01:08:23.591Z,11.30
2018-05-16T01:10:51.923Z,11.34
2018-05-16T01:13:20.280Z,11.40
2018-05-16T01:15:48.647Z,11.54
2018-05-16T01:18:17.027Z,11.61
2018-05-16T01:20:45.806Z,11.64
2018-05-16T01:23:14.142Z,11.68
2018-05-16T01:25:42.511Z,11.71
2018-05-16T01:28:10.857Z,11.74
2018-05-16T01:30:39.240Z,11.75
2018-05-16T01:33:07.588Z,11.80
2018-05-16T01:35:35.931Z,11.87
2018-05-16T01:38:04.399Z,11.95
2018-05-16T01:40:32.769Z,12.01
2018-05-16T01:43:01.143Z,12.04
2018-05-16T01:45:29.536Z,12.12
2018-05-16T01:50:32.486Z,12.24
2018-05-16T01:53:00.810Z,12.25
2018-05-16T01:55:29.187Z,12.31
2018-05-16T01:57:57.533Z,12.31
2018-05-16T02:00:25.914Z,12.28
2018-05-16T02:02:54.282Z,12.33
2018-05-16T02:05:22.647Z,12.40
2018-05-16T02:07:50.991Z,12.37
2018-05-16T02:10:19.751Z,12.32
2018-05-16T02:12:48.064Z,12.32
2018-05-16T02:15:17.171Z,12.43
2018-05-16T02:17:45.539Z,12.45
2018-05-16T02:20:14.661Z,12.50
2018-05-16T02:22:43.018Z,12.47
2018-05-16T02:25:12.127Z,12.40
2018-05-16T02:27:40.496Z,12.38
2018-05-16T02:30:09.609Z,12.39
2018-05-16T02:32:38.000Z,12.45
2018-05-16T02:35:07.381Z,12.46
2018-05-16T02:37:36.275Z,12.48
2018-05-16T02:40:04.607Z,12.51
2018-05-16T02:42:32.973Z,12.49
2018-05-16T02:45:01.322Z,12.50
2018-05-16T02:47:29.727Z,12.51
2018-05-16T02:49:58.791Z,12.51
2018-05-16T02:52:27.110Z,12.57
2018-05-16T02:54:55.481Z,12.58
2018-05-16T02:57:23.871Z,12.50
2018-05-16T02:59:52.247Z,12.46
2018-05-16T03:02:20.618Z,12.35
2018-05-16T03:04:48.977Z,12.34
2018-05-16T03:07:17.276Z,12.32
2018-05-16T03:09:45.618Z,12.36
2018-05-16T03:12:13.987Z,12.37
2018-05-16T03:14:42.344Z,12.35
2018-05-16T03:17:10.686Z,12.37
2018-05-16T03:19:39.067Z,12.32
2018-05-16T03:22:07.473Z,12.35
2018-05-16T03:24:36.599Z,12.25
2018-05-16T03:27:04.967Z,12.17
2018-05-16T03:29:33.291Z,12.20
2018-05-16T03:32:01.684Z,12.24
2018-05-16T03:34:30.787Z,12.27
2018-05-16T03:36:59.227Z,12.31
2018-05-16T03:39:28.034Z,12.36
2018-05-16T03:41:56.419Z,12.38
2018-05-16T03:44:25.579Z,12.44
2018-05-16T03:46:54.525Z,12.44
2018-05-16T03:49:23.638Z,12.49
2018-05-16T03:51:52.038Z,12.43
2018-05-16T03:54:20.417Z,12.43
2018-05-16T03:56:48.803Z,12.30
2018-05-16T03:59:35.104Z,12.45
2018-05-16T04:02:21.199Z,12.47
2018-05-16T04:04:49.467Z,12.49
2018-05-16T04:07:17.822Z,12.46
2018-05-16T04:09:46.261Z,12.36
2018-05-16T04:12:14.839Z,12.40
2018-05-16T04:14:43.210Z,12.47
2018-05-16T04:17:11.647Z,12.46
2018-05-16T04:19:40.039Z,12.69
2018-05-16T04:22:08.437Z,12.69
2018-05-16T04:24:36.875Z,12.73
2018-05-16T04:27:05.239Z,12.75
2018-05-16T04:29:34.372Z,12.77
2018-05-16T04:32:02.754Z,12.73
2018-05-16T04:34:31.124Z,12.80
2018-05-16T04:36:59.453Z,12.68
2018-05-16T04:39:27.803Z,12.76
2018-05-16T04:41:56.137Z,12.97
2018-05-16T04:44:24.517Z,13.08
2018-05-16T04:46:52.863Z,13.09
2018-05-16T04:49:21.243Z,13.05
2018-05-16T04:51:49.634Z,13.06
2018-05-16T04:54:18.774Z,13.06
2018-05-16T04:56:47.170Z,13.10
2018-05-16T04:59:15.554Z,13.19
2018-05-16T05:01:43.900Z,13.29
2018-05-16T05:04:12.265Z,13.27
2018-05-16T05:06:40.626Z,13.43
2018-05-16T05:09:09.781Z,13.39
2018-05-16T05:11:38.166Z,13.47
2018-05-16T05:14:06.501Z,13.39
2018-05-16T05:16:34.876Z,13.46
2018-05-16T05:19:03.245Z,13.50
2018-05-16T05:21:31.574Z,13.62
2018-05-16T05:23:59.943Z,13.74
2018-05-16T05:26:28.277Z,13.81
2018-05-16T05:28:56.636Z,13.87
2018-05-16T05:31:25.754Z,13.90
2018-05-16T05:33:54.124Z,13.83
2018-05-16T05:36:23.651Z,13.71
2018-05-16T05:38:52.790Z,13.59
2018-05-16T05:41:21.171Z,13.50
2018-05-16T05:43:49.513Z,13.50
2018-05-16T05:46:17.854Z,13.46
2018-05-16T05:48:47.026Z,13.53
2018-05-16T05:51:15.382Z,13.69
2018-05-16T05:53:43.839Z,13.78
2018-05-16T05:56:12.227Z,13.98
2018-05-16T05:58:41.356Z,14.04
2018-05-16T06:01:09.704Z,14.01
2018-05-16T06:03:38.074Z,14.10
2018-05-16T06:06:06.438Z,14.19
2018-05-16T06:08:34.815Z,14.32
2018-05-16T06:11:03.201Z,14.42
2018-05-16T06:13:32.301Z,14.39
2018-05-16T06:16:03.528Z,14.41
2018-05-16T06:18:33.878Z,14.29
2018-05-16T06:21:02.202Z,14.33
2018-05-16T06:23:31.343Z,14.59
2018-05-16T06:25:59.693Z,14.90
2018-05-16T06:28:28.069Z,15.14
2018-05-16T06:30:56.463Z,15.21
2018-05-16T06:33:24.795Z,15.34
2018-05-16T06:35:53.164Z,15.49
2018-05-16T06:38:21.485Z,15.73
2018-05-16T06:40:49.881Z,15.98
2018-05-16T06:43:18.228Z,15.82
2018-05-16T06:45:47.380Z,15.55
2018-05-16T06:48:15.823Z,15.46
2018-05-16T06:50:44.177Z,15.16
2018-05-16T06:53:13.321Z,15.10
2018-05-16T06:55:41.659Z,14.98
2018-05-16T06:58:10.817Z,15.23
2018-05-16T07:00:39.141Z,15.42
2018-05-16T07:03:07.499Z,15.54
2018-05-16T07:05:36.603Z,15.60
2018-05-16T07:08:05.749Z,15.56
2018-05-16T07:10:34.106Z,15.42
2018-05-16T07:13:02.497Z,15.41
2018-05-16T07:15:31.236Z,15.42
2018-05-16T07:18:00.374Z,15.57
2018-05-16T07:20:29.462Z,15.78
2018-05-16T07:22:57.793Z,15.89
2018-05-16T07:25:26.173Z,16.04
2018-05-16T07:27:54.532Z,16.25
2018-05-16T07:30:22.902Z,16.69
2018-05-16T07:32:51.269Z,16.91
2018-05-16T07:35:19.640Z,17.23
2018-05-16T07:37:48.763Z,17.48
2018-05-16T07:40:17.151Z,17.66
2018-05-16T07:42:45.508Z,17.90
2018-05-16T07:45:13.911Z,18.16
2018-05-16T07:47:42.295Z,18.55
2018-05-16T07:50:10.620Z,19.04
2018-05-16T07:52:39.000Z,19.49
2018-05-16T07:55:07.346Z,19.61
2018-05-16T07:57:35.717Z,18.88
2018-05-16T08:00:04.849Z,18.05
2018-05-16T08:02:33.187Z,18.60
2018-05-16T08:05:02.322Z,18.74
2018-05-16T08:07:30.689Z,18.91
2018-05-16T08:09:59.058Z,18.87
2018-05-16T08:12:27.447Z,18.80
2018-05-16T08:14:55.801Z,18.50
2018-05-16T08:17:24.165Z,18.43
2018-05-16T08:19:53.290Z,19.29
2018-05-16T08:22:21.638Z,19.22
2018-05-16T08:24:50.356Z,19.30
2018-05-16T08:27:18.736Z,19.51
2018-05-16T08:29:47.136Z,19.62
2018-05-16T08:32:16.280Z,20.03
2018-05-16T08:34:45.075Z,19.53
2018-05-16T08:37:14.184Z,19.39
2018-05-16T08:39:42.577Z,19.91
2018-05-16T08:42:10.957Z,19.88
2018-05-16T08:44:39.775Z,19.67
2018-05-16T08:47:08.154Z,20.29
2018-05-16T08:49:36.555Z,20.39
2018-05-16T08:52:06.222Z,20.55
2018-05-16T08:54:35.531Z,20.38
2018-05-16T08:57:06.585Z,20.47
2018-05-16T08:59:35.486Z,20.92
2018-05-16T09:02:05.829Z,20.87
2018-05-16T09:04:36.572Z,20.21
2018-05-16T09:07:05.655Z,20.77
2018-05-16T09:09:35.164Z,21.12
2018-05-16T09:12:03.731Z,20.68
2018-05-16T09:14:33.884Z,21.90
2018-05-16T09:17:02.248Z,22.47
2018-05-16T09:19:32.035Z,22.84
2018-05-16T09:22:01.226Z,21.35
2018-05-16T09:24:30.117Z,22.11
2018-05-16T09:26:59.598Z,22.66
2018-05-16T09:29:28.383Z,22.27
2018-05-16T09:31:57.528Z,22.91
2018-05-16T09:34:26.871Z,23.32
2018-05-16T09:36:55.256Z,23.22
2018-05-16T09:39:23.770Z,22.73
2018-05-16T09:41:52.176Z,22.62
2018-05-16T09:44:20.579Z,21.80
2018-05-16T09:46:48.946Z,22.28
2018-05-16T09:49:17.330Z,22.74
2018-05-16T09:51:45.759Z,22.48
2018-05-16T09:54:14.324Z,21.16
2018-05-16T09:56:43.380Z,21.39
2018-05-16T09:59:12.384Z,22.10
2018-05-16T10:01:42.907Z,22.14
2018-05-16T10:04:13.006Z,23.86
2018-05-16T10:06:42.168Z,23.04
2018-05-16T10:09:10.518Z,24.54
2018-05-16T10:11:39.316Z,24.01
2018-05-16T10:14:07.663Z,24.98
2018-05-16T10:16:36.109Z,23.30
2018-05-16T10:19:04.571Z,21.91
2018-05-16T10:21:33.001Z,20.81
2018-05-16T10:24:01.537Z,21.34
2018-05-16T10:26:30.792Z,21.59
2018-05-16T10:28:59.358Z,22.65
2018-05-16T10:31:27.821Z,22.94
2018-05-16T10:33:56.943Z,22.52
2018-05-16T10:36:25.328Z,22.53
2018-05-16T10:38:53.732Z,23.01
2018-05-16T10:41:22.203Z,22.20
2018-05-16T10:43:51.160Z,22.63
2018-05-16T10:46:20.461Z,22.97
2018-05-16T10:48:50.266Z,23.40
2018-05-16T10:51:18.611Z,22.59
2018-05-16T10:53:47.147Z,23.27
2018-05-16T10:56:16.364Z,23.35
2018-05-16T10:58:45.395Z,22.71
2018-05-16T11:01:13.776Z,23.94
2018-05-16T11:03:43.024Z,24.01
2018-05-16T11:06:11.482Z,23.10
2018-05-16T11:08:39.835Z,23.98
2018-05-16T11:11:08.980Z,23.46
2018-05-16T11:13:37.972Z,22.64
2018-05-16T11:16:06.708Z,22.69
2018-05-16T11:18:35.950Z,24.02
2018-05-16T11:21:04.834Z,23.92
2018-05-16T11:23:33.256Z,23.23
2018-05-16T11:26:01.612Z,22.68
2018-05-16T11:28:31.000Z,22.27
2018-05-16T11:31:00.555Z,22.76
2018-05-16T11:33:29.147Z,23.24
2018-05-16T11:35:57.572Z,23.10
2018-05-16T11:38:27.017Z,23.23
2018-05-16T11:40:55.357Z,23.37
2018-05-16T11:43:23.837Z,22.69
2018-05-16T11:45:52.736Z,22.74
2018-05-16T11:48:21.151Z,23.04
2018-05-16T11:50:50.079Z,22.57
2018-05-16T11:53:18.423Z,22.30
2018-05-16T11:55:47.771Z,22.81
2018-05-16T11:58:17.444Z,23.08
2018-05-16T12:00:46.631Z,23.44
2018-05-16T12:03:15.012Z,23.36
2018-05-16T12:05:44.161Z,22.80
2018-05-16T12:08:27.979Z,22.30
2018-05-16T12:10:56.387Z,22.35
2018-05-16T12:13:24.725Z,22.70
2018-05-16T12:15:53.883Z,23.01
2018-05-16T12:18:22.259Z,22.72
2018-05-16T12:20:50.643Z,23.26
2018-05-16T12:23:19.040Z,23.82
2018-05-16T12:25:48.195Z,23.90
2018-05-16T12:28:16.538Z,23.43
2018-05-16T12:30:44.975Z,22.57
2018-05-16T12:33:13.289Z,22.30
2018-05-16T12:35:42.467Z,22.09
2018-05-16T12:38:11.625Z,21.78
2018-05-16T12:40:40.015Z,21.46
2018-05-16T12:43:18.286Z,21.05
2018-05-16T12:45:46.703Z,20.53
2018-05-16T12:48:15.877Z,19.16
2018-05-16T12:50:44.276Z,17.79
2018-05-16T12:53:12.641Z,17.72
2018-05-16T12:55:41.276Z,17.52
2018-05-16T12:58:09.796Z,17.28
2018-05-16T13:00:38.143Z,16.96
2018-05-16T13:03:07.558Z,16.75
2018-05-16T13:05:35.951Z,16.41
2018-05-16T13:08:04.361Z,16.36
2018-05-16T13:10:32.787Z,16.17
2018-05-16T13:13:01.245Z,15.97
2018-05-16T13:15:29.707Z,15.44
2018-05-16T13:17:58.229Z,15.34
2018-05-16T13:20:26.496Z,15.37
2018-05-16T13:22:55.723Z,15.33
2018-05-16T13:25:24.246Z,15.57
2018-05-16T13:27:52.782Z,15.82
2018-05-16T13:30:21.147Z,15.85
2018-05-16T13:32:50.315Z,15.90
2018-05-16T13:35:18.726Z,15.95
2018-05-16T13:37:47.061Z,16.29
2018-05-16T13:40:15.454Z,16.55
2018-05-16T13:42:43.810Z,16.85
2018-05-16T13:45:12.214Z,17.22
2018-05-16T13:47:40.606Z,17.83
2018-05-16T13:50:10.165Z,18.37
2018-05-16T13:52:38.649Z,18.65
2018-05-16T13:55:07.045Z,19.24
2018-05-16T13:57:36.193Z,19.51
2018-05-16T14:00:04.724Z,19.92
2018-05-16T14:02:33.106Z,19.95
2018-05-16T14:05:01.473Z,20.05
2018-05-16T14:07:29.897Z,19.93
2018-05-16T14:09:58.364Z,19.85
2018-05-16T14:12:26.859Z,20.05
2018-05-16T14:14:55.289Z,20.32
2018-05-16T14:17:23.675Z,20.40
2018-05-16T14:19:52.066Z,20.30
2018-05-16T14:22:20.413Z,19.83
2018-05-16T14:24:48.808Z,19.73
2018-05-16T14:27:17.151Z,19.23
2018-05-16T14:29:45.591Z,18.55
2018-05-16T14:32:14.794Z,19.00
2018-05-16T14:34:43.192Z,19.46
2018-05-16T14:37:15.315Z,19.19
2018-05-16T14:39:44.613Z,19.11
2018-05-16T14:42:13.163Z,19.18
2018-05-16T14:44:41.617Z,19.13
2018-05-16T14:47:10.178Z,19.07
2018-05-16T14:49:40.135Z,18.85
2018-05-16T14:52:08.526Z,18.70
2018-05-16T14:54:37.917Z,18.82
2018-05-16T14:57:06.336Z,19.08
2018-05-16T14:59:34.858Z,19.53
2018-05-16T15:02:08.083Z,19.63
2018-05-16T15:04:37.136Z,20.14
2018-05-16T15:07:05.575Z,20.53
2018-05-16T15:09:33.988Z,20.68
2018-05-16T15:12:03.164Z,20.76
2018-05-16T15:14:31.476Z,20.86
2018-05-16T15:17:00.724Z,20.74
2018-05-16T15:19:30.410Z,20.46
2018-05-16T15:21:59.983Z,20.22
2018-05-16T15:24:29.280Z,20.08
2018-05-16T15:26:58.501Z,20.02
2018-05-16T15:29:26.927Z,20.45
2018-05-16T15:31:55.272Z,20.95
2018-05-16T15:34:23.722Z,21.24
2018-05-16T15:36:52.152Z,21.46
2018-05-16T15:39:20.571Z,21.58
2018-05-16T15:41:52.140Z,21.45
2018-05-16T15:44:20.741Z,21.16
2018-05-16T15:46:49.206Z,20.81
2018-05-16T15:49:17.704Z,20.49
2018-05-16T15:51:51.053Z,20.13
2018-05-16T15:54:22.767Z,20.05
2018-05-16T15:56:53.665Z,20.02
2018-05-16T16:02:01.236Z,19.43
2018-05-16T16:04:29.943Z,19.07
2018-05-16T16:06:59.038Z,18.69
2018-05-16T16:09:28.199Z,18.45
2018-05-16T16:11:59.378Z,18.40
2018-05-16T16:14:28.573Z,18.51
2018-05-16T16:16:57.229Z,18.65
2018-05-16T16:19:26.926Z,18.63
2018-05-16T16:21:55.497Z,18.70
2018-05-16T16:24:25.012Z,18.65
2018-05-16T16:26:53.438Z,18.56
2018-05-16T16:29:23.418Z,18.33
2018-05-16T16:31:53.996Z,18.11
2018-05-16T16:34:22.434Z,18.05
2018-05-16T16:36:55.449Z,17.90
2018-05-16T16:39:25.955Z,17.85
2018-05-16T16:42:04.354Z,16.15
2018-05-16T16:44:33.309Z,17.46
2018-05-16T16:47:04.679Z,17.57
2018-05-16T16:49:35.530Z,17.70
2018-05-16T16:55:16.576Z,17.80
2018-05-16T16:57:45.142Z,17.93
2018-05-16T17:00:13.759Z,18.01
2018-05-16T17:02:43.140Z,18.06
2018-05-16T17:05:12.016Z,18.09
2018-05-16T17:07:45.172Z,18.16
2018-05-16T17:10:13.653Z,18.27
2018-05-16T17:12:42.067Z,18.37
2018-05-16T17:15:11.396Z,18.45
2018-05-16T17:17:39.757Z,18.48
2018-05-16T17:20:08.272Z,18.33
2018-05-16T17:22:37.055Z,18.39
2018-05-16T17:25:05.492Z,18.25
2018-05-16T17:27:34.775Z,18.15
2018-05-16T17:30:04.215Z,18.09
2018-05-16T17:32:33.544Z,18.06
2018-05-16T17:35:07.480Z,18.10
2018-05-16T17:37:35.902Z,18.11
2018-05-16T17:40:05.856Z,18.07
2018-05-16T17:42:44.045Z,18.06
2018-05-16T17:45:13.578Z,18.17
2018-05-16T17:47:43.147Z,18.27
2018-05-16T17:50:12.561Z,18.41
2018-05-16T17:52:43.548Z,18.34
2018-05-16T17:55:15.693Z,18.56
2018-05-16T17:57:44.538Z,18.74
2018-05-16T18:00:15.440Z,18.83
2018-05-16T18:02:44.636Z,18.60
2018-05-16T18:05:14.425Z,18.42
2018-05-16T18:07:43.533Z,18.05
2018-05-16T18:10:12.364Z,17.75
2018-05-16T18:12:41.513Z,17.57
2018-05-16T18:15:28.365Z,17.42
2018-05-16T18:17:59.351Z,17.22
2018-05-16T18:20:31.510Z,17.01
2018-05-16T18:23:00.440Z,16.86
2018-05-16T18:25:28.888Z,16.69
2018-05-16T18:27:58.983Z,16.55
2018-05-16T18:30:27.327Z,16.43
2018-05-16T18:32:58.882Z,16.33
2018-05-16T18:35:27.364Z,16.18
2018-05-16T18:37:56.601Z,16.05
2018-05-16T18:40:25.027Z,15.90
2018-05-16T18:42:53.477Z,15.79
2018-05-16T18:45:21.952Z,15.63
2018-05-16T18:47:52.925Z,15.84
2018-05-16T18:50:23.509Z,15.66
2018-05-16T18:52:53.097Z,15.51
2018-05-16T18:55:21.722Z,15.51
2018-05-16T18:57:51.101Z,15.36
2018-05-16T19:00:20.362Z,15.19
2018-05-16T19:02:50.218Z,15.04
2018-05-16T19:05:19.626Z,15.01
2018-05-16T19:07:48.383Z,14.90
2018-05-16T19:10:17.594Z,14.83
2018-05-16T19:12:45.991Z,14.76
2018-05-16T19:15:14.397Z,14.72
2018-05-16T19:17:42.778Z,14.67
2018-05-16T19:20:11.283Z,14.69
2018-05-16T19:22:40.433Z,14.69
2018-05-16T19:25:09.720Z,14.67
2018-05-16T19:27:38.482Z,14.65
2018-05-16T19:30:08.061Z,14.62
2018-05-16T19:32:37.347Z,14.63
2018-05-16T19:35:05.739Z,14.60
2018-05-16T19:37:35.622Z,14.54
2018-05-16T19:40:05.294Z,14.48
2018-05-16T19:42:33.669Z,14.58
2018-05-16T19:45:02.063Z,14.63
2018-05-16T19:47:30.443Z,14.62
2018-05-16T19:49:58.829Z,14.66
2018-05-16T19:52:27.231Z,14.64
2018-05-16T19:54:55.625Z,14.65
2018-05-16T19:57:24.035Z,14.65
2018-05-16T19:59:53.754Z,14.57
2018-05-16T20:02:22.105Z,14.54
2018-05-16T20:04:52.372Z,14.41
2018-05-16T20:07:20.717Z,14.31
2018-05-16T20:09:49.147Z,14.21
2018-05-16T20:12:17.495Z,14.15
2018-05-16T20:14:45.894Z,14.19
2018-05-16T20:17:14.299Z,14.25
2018-05-16T20:19:42.699Z,14.32
2018-05-16T20:22:11.818Z,14.37
2018-05-16T20:24:40.353Z,14.42
2018-05-16T20:27:08.759Z,14.53
2018-05-16T20:29:43.351Z,14.57
2018-05-16T20:32:11.869Z,14.57
2018-05-16T20:34:40.263Z,14.60
2018-05-16T20:37:08.619Z,14.61
2018-05-16T20:39:37.755Z,14.60
2018-05-16T20:42:06.110Z,14.60
2018-05-16T20:44:34.455Z,14.61
2018-05-16T20:47:03.605Z,14.61
2018-05-16T20:49:32.019Z,14.65
2018-05-16T20:52:01.024Z,14.66
2018-05-16T20:54:30.380Z,14.66
2018-05-16T20:56:58.744Z,14.70
2018-05-16T20:59:27.110Z,14.72
2018-05-16T21:01:55.471Z,14.76
2018-05-16T21:04:23.854Z,14.72
2018-05-16T21:06:52.224Z,14.70
2018-05-16T21:09:27.180Z,14.68
2018-05-16T21:11:55.574Z,14.68
2018-05-16T21:14:24.704Z,14.66
2018-05-16T21:16:53.084Z,14.69
2018-05-16T21:19:21.542Z,14.73
2018-05-16T21:21:49.878Z,14.71
2018-05-16T21:24:19.014Z,14.72
2018-05-16T21:26:47.375Z,14.69
2018-05-16T21:29:15.732Z,14.68
2018-05-16T21:31:45.234Z,14.72
2018-05-16T21:34:14.413Z,14.70
2018-05-16T21:36:43.556Z,14.72
2018-05-16T21:39:11.934Z,14.76
2018-05-16T21:41:40.374Z,14.80
2018-05-16T21:44:09.518Z,14.75
2018-05-16T21:46:37.845Z,14.71
2018-05-16T21:49:07.364Z,14.70
2018-05-16T21:51:35.742Z,14.69
2018-05-16T21:54:04.207Z,14.78
2018-05-16T21:56:33.301Z,14.73
2018-05-16T21:59:01.687Z,14.80
2018-05-16T22:01:30.805Z,14.82
2018-05-16T22:03:59.660Z,14.81
2018-05-16T22:06:28.350Z,14.79
2018-05-16T22:09:01.390Z,14.83
2018-05-16T22:11:30.366Z,14.82
2018-05-16T22:13:59.591Z,14.84
2018-05-16T22:16:28.982Z,14.80
2018-05-16T22:18:58.523Z,14.83
2018-05-16T22:21:28.597Z,14.80
2018-05-16T22:23:57.043Z,14.86
2018-05-16T22:26:26.482Z,14.84
2018-05-16T22:28:57.747Z,14.83
2018-05-16T22:31:32.466Z,14.83
2018-05-16T22:34:07.247Z,14.79
2018-05-16T22:36:42.151Z,14.79
2018-05-16T22:39:16.828Z,14.77
2018-05-16T22:41:51.376Z,14.74
2018-05-16T22:44:25.314Z,14.74
2018-05-16T22:46:53.754Z,14.73
2018-05-16T22:49:22.119Z,14.70
2018-05-16T22:51:51.494Z,14.74
2018-05-16T22:54:23.102Z,14.73
2018-05-16T22:56:51.486Z,14.74
2018-05-16T22:59:22.937Z,14.72
2018-05-16T23:01:51.759Z,14.78
2018-05-16T23:04:20.884Z,14.79
2018-05-16T23:06:49.653Z,14.77
2018-05-16T23:12:20.239Z,14.64
2018-05-16T23:14:50.384Z,14.64
2018-05-16T23:17:21.692Z,14.58
2018-05-16T23:19:53.826Z,14.51
2018-05-16T23:22:23.122Z,14.51
2018-05-16T23:24:55.975Z,14.52
2018-05-16T23:27:25.655Z,14.52
2018-05-16T23:29:54.034Z,14.48
2018-05-16T23:32:24.727Z,14.49
2018-05-16T23:34:54.218Z,14.45
2018-05-16T23:37:22.576Z,14.42
2018-05-16T23:39:50.929Z,14.38
2018-05-16T23:42:22.928Z,14.38
2018-05-16T23:44:51.493Z,14.36
2018-05-16T23:47:20.169Z,14.35
2018-05-16T23:52:55.427Z,14.33
2018-05-16T23:55:29.218Z,14.34
2018-05-16T23:58:01.952Z,14.33
